Time;durP1;ratioP1;P1;durP2;ratioP2;P2;SDS_P1;SDS_P2;PMS_P1;PMS_P2;Temp;Humidity;BMP_temperature;BMP_pressure;BME280_temperature;BME280_humidity;BME280_pressure;Samples;Min_cycle;Max_cycle;Signal;HPM_P1;HPM_P2
2021/03/22 00:01:40;;;;;;;10.33;3.37;;;6.60;99.90;;;;;;5038050;28;20612;-49
2021/03/22 00:04:07;;;;;;;11.37;3.37;;;6.60;99.90;;;;;;5051687;28;20722;-49
2021/03/22 00:06:34;;;;;;;19.83;3.80;;;6.60;99.90;;;;;;5054771;28;20243;-51
2021/03/22 00:09:00;;;;;;;10.00;3.10;;;6.30;99.90;;;;;;5053060;28;20280;-50
2021/03/22 00:11:26;;;;;;;13.67;3.30;;;6.40;99.90;;;;;;5053099;28;20292;-50
2021/03/22 00:13:53;;;;;;;14.57;3.73;;;6.30;99.90;;;;;;5053155;28;20214;-49
2021/03/22 00:16:19;;;;;;;9.23;3.63;;;6.20;99.90;;;;;;5054016;28;20950;-51
2021/03/22 00:18:46;;;;;;;13.77;4.03;;;6.20;99.90;;;;;;5055457;28;20607;-48
2021/03/22 00:21:14;;;;;;;11.80;3.37;;;6.30;99.90;;;;;;5050722;28;20336;-51
2021/03/22 00:23:41;;;;;;;14.03;4.13;;;6.40;99.90;;;;;;5058587;28;20568;-49
2021/03/22 00:26:08;;;;;;;9.23;2.87;;;6.50;99.90;;;;;;5055622;28;20264;-50
2021/03/22 00:28:38;;;;;;;14.10;2.80;;;6.40;99.90;;;;;;5041200;28;20211;-51
2021/03/22 00:31:14;;;;;;;15.33;3.50;;;6.40;99.90;;;;;;5057417;28;20708;-51
2021/03/22 00:33:40;;;;;;;11.97;2.93;;;6.40;99.90;;;;;;5055870;28;20289;-51
2021/03/22 00:36:09;;;;;;;7.23;2.83;;;6.30;99.90;;;;;;5055268;28;20665;-49
2021/03/22 00:38:36;;;;;;;11.53;3.50;;;6.10;99.90;;;;;;5057570;28;20674;-50
2021/03/22 00:41:03;;;;;;;11.50;2.63;;;5.60;99.90;;;;;;5057246;28;20214;-50
2021/03/22 00:43:30;;;;;;;12.50;3.50;;;5.70;99.90;;;;;;5043491;28;20195;-49
2021/03/22 00:46:01;;;;;;;14.00;3.60;;;5.50;99.90;;;;;;5041727;28;20732;-51
2021/03/22 00:48:30;;;;;;;12.93;2.20;;;5.50;99.90;;;;;;5059783;28;20206;-50
2021/03/22 00:50:57;;;;;;;10.30;3.03;;;5.50;99.90;;;;;;5040137;28;20680;-51
2021/03/22 00:53:24;;;;;;;10.87;3.37;;;5.40;99.90;;;;;;5059834;28;20738;-48
2021/03/22 00:55:52;;;;;;;11.00;2.60;;;5.20;99.90;;;;;;5056605;28;20287;-50
2021/03/22 00:58:18;;;;;;;11.97;3.33;;;5.50;99.90;;;;;;5062761;28;20282;-50
2021/03/22 01:00:50;;;;;;;17.03;3.43;;;5.70;99.90;;;;;;5056469;28;20249;-47
2021/03/22 01:03:20;;;;;;;12.57;3.37;;;5.70;99.90;;;;;;5057424;28;20214;-52
2021/03/22 01:05:47;;;;;;;15.83;3.00;;;5.70;99.90;;;;;;5059452;28;20203;-50
2021/03/22 01:08:14;;;;;;;11.83;3.07;;;5.50;99.90;;;;;;5060351;28;20723;-50
2021/03/22 01:10:48;;;;;;;10.67;3.13;;;5.40;99.90;;;;;;5057009;28;20215;-50
2021/03/22 01:13:16;;;;;;;8.60;2.67;;;5.10;99.90;;;;;;5057424;28;20290;-49
2021/03/22 01:15:42;;;;;;;11.67;3.00;;;5.00;99.90;;;;;;5059185;28;20302;-51
2021/03/22 01:18:09;;;;;;;22.40;3.77;;;4.70;99.90;;;;;;5059587;28;20841;-50
2021/03/22 01:20:41;;;;;;;4.90;2.10;;;4.70;99.90;;;;;;5058131;28;20617;-51
2021/03/22 01:23:07;;;;;;;14.90;2.50;;;4.80;99.90;;;;;;5040900;28;20915;-49
2021/03/22 01:25:34;;;;;;;9.23;3.10;;;4.80;99.90;;;;;;5060263;28;20293;-48
2021/03/22 01:28:01;;;;;;;14.73;3.50;;;4.60;99.90;;;;;;5054878;28;20236;-51
2021/03/22 01:30:39;;;;;;;17.07;3.20;;;4.50;99.90;;;;;;5052066;28;20204;-51
2021/03/22 01:33:09;;;;;;;12.10;3.17;;;4.70;99.90;;;;;;5057807;28;20291;-50
2021/03/22 01:35:36;;;;;;;12.77;3.53;;;4.20;99.90;;;;;;5058806;28;20297;-50
2021/03/22 01:38:03;;;;;;;9.60;2.80;;;4.50;99.90;;;;;;5059573;28;20298;-50
2021/03/22 01:40:53;;;;;;;14.80;2.70;;;4.50;99.90;;;;;;5048990;28;20209;-50
2021/03/22 01:43:50;;;;;;;12.07;4.03;;;4.40;99.90;;;;;;5049273;28;20275;-50
2021/03/22 01:46:30;;;;;;;10.40;3.00;;;4.50;99.90;;;;;;5045572;28;20195;-51
2021/03/22 01:48:58;;;;;;;8.97;3.17;;;4.60;99.90;;;;;;5058381;28;20535;-52
2021/03/22 01:51:25;;;;;;;12.67;3.67;;;4.40;99.90;;;;;;5044947;28;20259;-49
2021/03/22 01:53:51;;;;;;;14.50;3.50;;;4.60;99.90;;;;;;5058170;28;20601;-51
2021/03/22 01:56:23;;;;;;;13.77;3.73;;;4.80;99.90;;;;;;5058975;28;20287;-52
2021/03/22 01:58:50;;;;;;;14.73;4.83;;;4.80;99.90;;;;;;5059202;28;20226;-50
2021/03/22 02:01:20;;;;;;;15.40;3.93;;;5.00;99.90;;;;;;5040040;28;20205;-48
2021/03/22 02:03:48;;;;;;;14.33;4.30;;;4.90;99.90;;;;;;5058586;28;20304;-49
2021/03/22 02:06:15;;;;;;;14.77;4.93;;;4.90;99.90;;;;;;5059933;28;20204;-49
2021/03/22 02:08:44;;;;;;;13.57;3.50;;;5.00;99.90;;;;;;5058279;28;21981;-49
2021/03/22 02:11:27;;;;;;;16.47;4.87;;;4.90;99.90;;;;;;5055085;28;20243;-50
2021/03/22 02:13:57;;;;;;;11.00;4.00;;;5.00;99.90;;;;;;5038441;28;20295;-51
2021/03/22 02:16:28;;;;;;;10.23;3.87;;;4.90;99.90;;;;;;5058160;28;20213;-49
2021/03/22 02:19:21;;;;;;;10.80;4.07;;;4.90;99.90;;;;;;5057854;28;20290;-49
2021/03/22 02:22:25;;;;;;;16.17;3.73;;;4.80;99.90;;;;;;5059473;28;20242;-50
2021/03/22 02:25:22;;;;;;;14.93;4.10;;;4.70;99.90;;;;;;5058762;28;20304;-51
2021/03/22 02:28:10;;;;;;;13.37;3.43;;;4.60;99.90;;;;;;5043081;28;20640;-49
2021/03/22 02:31:17;;;;;;;14.87;3.77;;;4.50;99.90;;;;;;5057041;28;20211;-50
2021/03/22 02:34:14;;;;;;;11.53;4.03;;;4.50;99.90;;;;;;5056597;28;20262;-50
2021/03/22 02:36:59;;;;;;;14.27;4.30;;;4.80;99.90;;;;;;5043746;28;20238;-49
2021/03/22 02:39:38;;;;;;;10.83;4.13;;;4.90;99.90;;;;;;5055952;28;20210;-49
2021/03/22 02:42:07;;;;;;;10.50;4.00;;;4.80;99.90;;;;;;5058095;28;20217;-50
2021/03/22 02:44:36;;;;;;;13.93;4.20;;;4.90;99.90;;;;;;5058532;28;20261;-50
2021/03/22 02:47:21;;;;;;;14.53;4.17;;;5.00;99.90;;;;;;5058429;28;20684;-49
2021/03/22 02:49:49;;;;;;;19.37;4.70;;;4.90;99.90;;;;;;5051770;28;20698;-48
2021/03/22 02:52:41;;;;;;;16.13;5.37;;;5.10;99.90;;;;;;5051615;28;20289;-49
2021/03/22 02:55:23;;;;;;;15.20;4.53;;;5.20;99.90;;;;;;5053281;28;22108;-51
2021/03/22 02:57:53;;;;;;;14.03;5.90;;;5.30;99.90;;;;;;5057019;28;20201;-49
2021/03/22 03:00:29;;;;;;;20.60;6.10;;;5.40;99.90;;;;;;5053575;28;20563;-50
2021/03/22 03:02:59;;;;;;;14.53;5.50;;;5.40;99.90;;;;;;5056728;28;20637;-50
2021/03/22 03:05:30;;;;;;;22.30;5.73;;;5.50;99.90;;;;;;5054295;28;20205;-50
2021/03/22 03:08:04;;;;;;;24.53;6.23;;;5.40;99.90;;;;;;5056848;28;20245;-48
2021/03/22 03:10:31;;;;;;;14.87;5.43;;;5.50;99.90;;;;;;5056281;28;20239;-49
2021/03/22 03:12:57;;;;;;;10.87;4.93;;;5.50;99.90;;;;;;5058067;28;20562;-49
2021/03/22 03:15:24;;;;;;;25.30;6.47;;;5.50;99.90;;;;;;5058116;28;20598;-49
2021/03/22 03:17:52;;;;;;;15.50;5.33;;;5.50;99.90;;;;;;5058367;28;20233;-50
2021/03/22 03:20:28;;;;;;;23.07;6.00;;;5.50;99.90;;;;;;5055498;28;20280;-49
2021/03/22 03:22:56;;;;;;;14.73;5.40;;;5.50;99.90;;;;;;5058229;28;20301;-50
2021/03/22 03:25:23;;;;;;;19.97;5.30;;;5.60;99.90;;;;;;5053915;28;20214;-50
2021/03/22 03:27:50;;;;;;;18.10;5.47;;;5.50;99.90;;;;;;5056480;28;20375;-50
2021/03/22 03:30:20;;;;;;;19.70;5.60;;;5.50;99.90;;;;;;5056089;28;20227;-51
2021/03/22 03:32:46;;;;;;;17.83;5.53;;;5.60;99.90;;;;;;5054462;28;20309;-48
2021/03/22 03:35:14;;;;;;;19.20;5.70;;;5.60;99.90;;;;;;5055255;28;20662;-49
2021/03/22 03:37:41;;;;;;;17.47;5.30;;;5.60;99.90;;;;;;5038610;28;20293;-50
2021/03/22 03:40:11;;;;;;;16.70;6.23;;;5.70;99.90;;;;;;5054890;28;20546;-50
2021/03/22 03:42:38;;;;;;;20.07;5.80;;;5.60;99.90;;;;;;5055953;28;20294;-49
2021/03/22 03:45:10;;;;;;;16.47;4.70;;;5.70;99.90;;;;;;5056839;28;20238;-49
2021/03/22 03:47:40;;;;;;;11.67;5.80;;;5.70;99.90;;;;;;5052618;28;20276;-49
2021/03/22 03:50:14;;;;;;;15.00;3.93;;;5.80;99.90;;;;;;5053919;28;20253;-50
2021/03/22 03:52:40;;;;;;;15.63;4.73;;;5.80;99.90;;;;;;5056149;28;20270;-49
2021/03/22 03:55:09;;;;;;;20.90;5.40;;;5.90;99.90;;;;;;5054298;28;20198;-50
2021/03/22 03:57:36;;;;;;;19.30;5.67;;;5.80;99.90;;;;;;5037478;28;20262;-49
2021/03/22 04:00:12;;;;;;;17.53;5.53;;;5.80;99.90;;;;;;5056233;28;20203;-50
2021/03/22 04:02:41;;;;;;;14.07;5.13;;;5.90;99.90;;;;;;5052936;28;20208;-49
2021/03/22 04:05:10;;;;;;;26.63;5.93;;;5.90;99.90;;;;;;5055729;28;20220;-50
2021/03/22 04:07:36;;;;;;;17.63;5.10;;;5.90;99.90;;;;;;5054281;28;20697;-49
2021/03/22 04:10:04;;;;;;;20.20;4.80;;;5.90;99.90;;;;;;5039619;28;20229;-49
2021/03/22 04:12:31;;;;;;;22.73;5.13;;;6.00;99.90;;;;;;5056119;28;20282;-49
2021/03/22 04:14:58;;;;;;;14.97;5.23;;;6.00;99.90;;;;;;5055491;28;20198;-49
2021/03/22 04:17:24;;;;;;;12.93;5.63;;;6.10;99.90;;;;;;5053369;28;20762;-50
2021/03/22 04:19:51;;;;;;;15.23;5.73;;;6.10;99.90;;;;;;5056762;28;20559;-49
2021/03/22 04:22:17;;;;;;;20.70;5.77;;;6.10;99.90;;;;;;5053950;28;20214;-49
2021/03/22 04:24:43;;;;;;;12.37;4.93;;;6.20;99.90;;;;;;5055685;28;20210;-51
2021/03/22 04:27:10;;;;;;;19.23;5.17;;;6.20;99.90;;;;;;5044569;28;20202;-48
2021/03/22 04:29:36;;;;;;;14.67;5.07;;;6.30;99.90;;;;;;5056944;28;20215;-51
2021/03/22 04:32:02;;;;;;;11.33;5.40;;;5.90;99.90;;;;;;5038583;28;20242;-49
2021/03/22 04:34:29;;;;;;;25.43;5.90;;;5.60;99.90;;;;;;5056912;28;20202;-49
2021/03/22 04:36:55;;;;;;;17.77;5.13;;;5.60;99.90;;;;;;5055443;28;20207;-50
2021/03/22 04:39:22;;;;;;;18.00;6.43;;;5.90;99.90;;;;;;5053905;28;20608;-51
2021/03/22 04:41:48;;;;;;;12.23;4.40;;;6.00;99.90;;;;;;5057100;28;20263;-49
2021/03/22 04:44:14;;;;;;;16.97;4.97;;;5.80;99.90;;;;;;5057645;28;20357;-51
2021/03/22 04:46:41;;;;;;;21.80;5.07;;;5.80;99.90;;;;;;5057450;28;20277;-51
2021/03/22 04:49:08;;;;;;;17.23;5.50;;;5.90;99.90;;;;;;5033471;28;20282;-51
2021/03/22 04:51:34;;;;;;;18.10;5.27;;;5.90;99.90;;;;;;5052627;28;20262;-50
2021/03/22 04:54:01;;;;;;;15.80;5.47;;;5.80;99.90;;;;;;5034887;28;20216;-49
2021/03/22 04:56:27;;;;;;;14.47;4.97;;;6.10;99.90;;;;;;5055719;28;20235;-51
2021/03/22 04:58:54;;;;;;;16.13;5.03;;;6.00;99.90;;;;;;5055698;28;20256;-51
2021/03/22 05:01:20;;;;;;;28.33;6.50;;;6.00;99.90;;;;;;5054329;28;20202;-50
2021/03/22 05:03:47;;;;;;;22.73;6.07;;;6.00;99.90;;;;;;5050587;28;20216;-50
2021/03/22 05:06:13;;;;;;;20.47;5.83;;;5.90;99.90;;;;;;5055144;28;20300;-50
2021/03/22 05:08:40;;;;;;;13.63;5.23;;;6.20;99.90;;;;;;5055332;28;20227;-51
2021/03/22 05:11:07;;;;;;;13.97;5.17;;;6.20;99.90;;;;;;5056055;28;20601;-51
2021/03/22 05:13:33;;;;;;;14.80;5.87;;;6.20;99.90;;;;;;5055927;28;20720;-49
2021/03/22 05:15:59;;;;;;;14.30;5.63;;;6.20;99.90;;;;;;5055624;28;20242;-50
2021/03/22 05:18:30;;;;;;;18.47;5.47;;;6.20;99.90;;;;;;5056739;28;20289;-50
2021/03/22 05:21:02;;;;;;;13.10;4.40;;;6.30;99.90;;;;;;5054142;28;20213;-51
2021/03/22 05:23:30;;;;;;;16.30;5.13;;;6.30;99.90;;;;;;5057946;28;20192;-48
2021/03/22 05:25:58;;;;;;;18.50;4.93;;;6.50;99.90;;;;;;5059819;28;20619;-50
2021/03/22 05:28:27;;;;;;;19.53;5.30;;;6.60;99.90;;;;;;5060109;28;20229;-49
2021/03/22 05:30:54;;;;;;;13.00;5.23;;;6.50;99.90;;;;;;5058754;28;20203;-49
2021/03/22 05:33:22;;;;;;;15.80;5.33;;;6.50;99.90;;;;;;5057816;28;20261;-48
2021/03/22 05:35:54;;;;;;;15.93;5.47;;;6.60;99.90;;;;;;5057952;28;20236;-49
2021/03/22 05:38:22;;;;;;;14.30;4.60;;;6.70;99.90;;;;;;5058182;28;20202;-49
2021/03/22 05:41:04;;;;;;;19.77;5.17;;;6.80;99.90;;;;;;5058155;28;20844;-50
2021/03/22 05:43:33;;;;;;;19.53;5.30;;;6.80;99.90;;;;;;5060555;28;20207;-49
2021/03/22 05:46:27;;;;;;;18.13;4.97;;;6.70;99.90;;;;;;5059530;28;20601;-49
2021/03/22 05:49:31;;;;;;;17.00;5.40;;;6.80;99.90;;;;;;5057473;28;20544;-52
2021/03/22 05:52:19;;;;;;;17.07;5.30;;;6.80;99.90;;;;;;5059872;28;20316;-51
2021/03/22 05:54:56;;;;;;;23.53;5.53;;;6.80;99.90;;;;;;5058236;28;20196;-52
2021/03/22 05:58:08;;;;;;;14.53;5.40;;;6.80;99.90;;;;;;5059994;28;20249;-52
2021/03/22 06:00:43;;;;;;;16.77;5.10;;;6.90;99.90;;;;;;5044286;28;20290;-51
2021/03/22 06:03:26;;;;;;;12.97;5.23;;;6.90;99.90;;;;;;5058841;28;20230;-51
2021/03/22 06:06:05;;;;;;;21.03;6.17;;;6.80;99.90;;;;;;5058570;28;20203;-50
2021/03/22 06:08:42;;;;;;;20.90;5.80;;;6.80;99.90;;;;;;5055971;28;20236;-50
2021/03/22 06:11:23;;;;;;;15.93;6.27;;;6.80;99.90;;;;;;5056838;28;20911;-49
2021/03/22 06:13:58;;;;;;;12.90;6.60;;;6.90;99.90;;;;;;5054775;28;20473;-50
2021/03/22 06:16:26;;;;;;;24.70;6.43;;;7.00;99.90;;;;;;5051981;28;21518;-49
2021/03/22 06:18:57;;;;;;;19.43;5.57;;;7.00;99.90;;;;;;5054100;28;20234;-49
2021/03/22 06:21:25;;;;;;;17.83;6.40;;;7.00;99.90;;;;;;5053717;28;20210;-51
2021/03/22 06:23:52;;;;;;;17.23;6.97;;;7.10;99.90;;;;;;5051020;28;20283;-49
2021/03/22 06:26:18;;;;;;;12.10;5.53;;;7.10;99.90;;;;;;5036219;28;20338;-50
2021/03/22 06:28:49;;;;;;;17.50;5.83;;;7.00;99.90;;;;;;5051658;28;20257;-49
2021/03/22 06:31:19;;;;;;;13.73;5.10;;;7.00;99.90;;;;;;5049276;28;20238;-49
2021/03/22 06:33:48;;;;;;;13.67;4.77;;;6.90;99.90;;;;;;5051253;28;20249;-47
2021/03/22 06:36:19;;;;;;;11.97;4.17;;;6.90;99.90;;;;;;5055987;28;20205;-50
2021/03/22 06:38:50;;;;;;;17.47;4.50;;;6.80;99.90;;;;;;5053252;28;20785;-50
2021/03/22 06:41:43;;;;;;;12.30;4.57;;;6.90;99.90;;;;;;5057341;28;20250;-50
2021/03/22 06:44:17;;;;;;;10.53;4.07;;;6.90;99.90;;;;;;5056465;28;20669;-51
2021/03/22 06:47:06;;;;;;;15.03;4.23;;;6.90;99.90;;;;;;5057878;28;20250;-51
2021/03/22 06:49:38;;;;;;;16.70;4.70;;;6.80;99.90;;;;;;5057265;28;20733;-51
2021/03/22 06:52:12;;;;;;;14.67;5.60;;;6.80;99.90;;;;;;5055381;28;20982;-51
2021/03/22 06:54:40;;;;;;;13.97;3.97;;;6.90;99.90;;;;;;5055044;28;20297;-50
2021/03/22 06:57:10;;;;;;;20.17;4.67;;;6.90;99.90;;;;;;5058772;28;20288;-51
2021/03/22 06:59:39;;;;;;;14.47;4.30;;;6.90;99.90;;;;;;5054306;28;20207;-49
2021/03/22 07:02:21;;;;;;;12.10;3.93;;;6.90;99.90;;;;;;5048214;28;20531;-47
2021/03/22 07:04:48;;;;;;;11.27;4.10;;;6.80;99.90;;;;;;5052082;28;20258;-48
2021/03/22 07:07:23;;;;;;;12.80;5.03;;;6.70;99.90;;;;;;5049841;28;20568;-50
2021/03/22 07:10:16;;;;;;;20.80;5.17;;;6.90;99.90;;;;;;5052336;28;20681;-51
2021/03/22 07:12:43;;;;;;;21.30;4.97;;;6.80;99.90;;;;;;5056012;28;20299;-51
2021/03/22 07:15:22;;;;;;;10.30;4.00;;;7.00;99.90;;;;;;5057616;28;20200;-51
2021/03/22 07:18:14;;;;;;;12.13;3.90;;;7.00;99.90;;;;;;5057429;28;20581;-52
2021/03/22 07:21:00;;;;;;;14.83;3.87;;;7.10;99.90;;;;;;5054743;28;20243;-49
2021/03/22 07:23:35;;;;;;;20.33;4.53;;;7.00;99.90;;;;;;5054878;28;20204;-48
2021/03/22 07:26:22;;;;;;;15.70;4.63;;;6.90;99.90;;;;;;5054036;28;20241;-50
2021/03/22 07:29:19;;;;;;;14.93;4.13;;;6.90;99.90;;;;;;5054994;28;21031;-48
2021/03/22 07:31:52;;;;;;;14.33;4.27;;;6.90;99.90;;;;;;5054585;28;20269;-49
2021/03/22 07:34:31;;;;;;;9.00;3.83;;;6.80;99.90;;;;;;5052871;28;20191;-47
2021/03/22 07:37:36;;;;;;;11.90;3.83;;;7.00;99.90;;;;;;5056501;28;20313;-49
2021/03/22 07:40:26;;;;;;;13.73;4.00;;;7.10;99.90;;;;;;5034583;28;20527;-50
2021/03/22 07:43:00;;;;;;;10.53;3.93;;;7.10;99.90;;;;;;5053238;28;20210;-49
2021/03/22 07:45:40;;;;;;;11.30;3.83;;;7.10;99.90;;;;;;5056548;28;20249;-48
2021/03/22 07:48:25;;;;;;;12.43;3.80;;;7.20;99.90;;;;;;5036858;28;20720;-49
2021/03/22 07:51:28;;;;;;;15.60;4.93;;;7.20;99.90;;;;;;5057642;28;20209;-49
2021/03/22 07:54:15;;;;;;;9.70;4.03;;;7.30;99.90;;;;;;5054800;28;20650;-49
2021/03/22 07:56:44;;;;;;;13.47;4.40;;;7.20;99.90;;;;;;5046357;28;20285;-49
2021/03/22 07:59:40;;;;;;;11.00;4.13;;;7.40;99.90;;;;;;5057883;28;20698;-49
2021/03/22 08:02:32;;;;;;;13.93;3.90;;;7.30;99.90;;;;;;5057397;28;20310;-49
2021/03/22 08:05:15;;;;;;;15.57;3.20;;;7.40;99.90;;;;;;5052338;28;20252;-49
2021/03/22 08:07:58;;;;;;;15.63;3.37;;;7.50;99.90;;;;;;5053772;28;20295;-49
2021/03/22 08:10:27;;;;;;;10.30;3.30;;;7.50;99.90;;;;;;5056282;28;20269;-49
2021/03/22 08:13:18;;;;;;;12.10;3.30;;;7.50;99.90;;;;;;5055366;28;20642;-49
2021/03/22 08:16:06;;;;;;;10.30;3.10;;;7.70;99.90;;;;;;5056834;28;20241;-48
2021/03/22 08:19:02;;;;;;;9.90;2.87;;;7.80;99.90;;;;;;5056928;28;20229;-49
2021/03/22 08:21:50;;;;;;;9.53;2.87;;;8.20;99.90;;;;;;5054448;28;20231;-49
2021/03/22 08:24:39;;;;;;;8.23;2.60;;;8.10;99.90;;;;;;5053787;28;20658;-49
2021/03/22 08:27:13;;;;;;;6.47;2.97;;;8.10;99.90;;;;;;5008050;28;20627;-49
2021/03/22 08:29:51;;;;;;;6.40;2.40;;;8.10;99.90;;;;;;5045601;28;20649;-49
2021/03/22 08:32:42;;;;;;;5.00;1.83;;;8.20;99.90;;;;;;5054271;28;20677;-48
2021/03/22 08:35:22;;;;;;;12.80;3.47;;;8.10;99.90;;;;;;5057950;28;20206;-47
2021/03/22 08:38:12;;;;;;;8.47;3.83;;;8.10;99.90;;;;;;5054356;28;20233;-49
2021/03/22 08:40:56;;;;;;;10.07;2.70;;;8.00;99.90;;;;;;5051766;28;20719;-48
2021/03/22 08:43:34;;;;;;;9.83;2.80;;;8.00;99.90;;;;;;5056172;28;20329;-50
2021/03/22 08:46:36;;;;;;;5.50;2.70;;;8.00;99.90;;;;;;5056559;28;20199;-50
2021/03/22 08:49:18;;;;;;;7.20;2.80;;;8.10;99.90;;;;;;5054531;28;20202;-47
2021/03/22 08:51:55;;;;;;;7.70;2.23;;;8.20;99.90;;;;;;5053999;28;20298;-50
2021/03/22 08:54:27;;;;;;;7.63;2.00;;;8.10;99.90;;;;;;5053298;28;20326;-48
2021/03/22 08:57:02;;;;;;;9.03;2.30;;;8.20;99.90;;;;;;5054878;28;20205;-50
2021/03/22 08:59:29;;;;;;;6.23;2.63;;;8.30;99.90;;;;;;5058744;28;20229;-49
2021/03/22 09:02:21;;;;;;;9.63;2.47;;;8.30;99.90;;;;;;5042422;28;20195;-50
2021/03/22 09:04:49;;;;;;;5.60;2.97;;;8.00;99.90;;;;;;5059034;28;21449;-50
2021/03/22 09:07:16;;;;;;;11.03;2.90;;;8.30;99.90;;;;;;5059445;28;20264;-48
2021/03/22 09:09:45;;;;;;;7.43;2.60;;;8.30;99.90;;;;;;5057440;28;20257;-49
2021/03/22 09:12:45;;;;;;;11.23;3.53;;;8.20;99.90;;;;;;5042694;28;20221;-49
2021/03/22 09:15:13;;;;;;;6.97;2.70;;;8.00;99.90;;;;;;5060917;28;20544;-48
2021/03/22 09:17:49;;;;;;;9.03;2.77;;;8.10;99.90;;;;;;5058268;28;20289;-49
2021/03/22 09:20:32;;;;;;;7.20;2.10;;;7.90;99.90;;;;;;5059613;28;20246;-48
2021/03/22 09:23:16;;;;;;;8.27;2.63;;;8.20;99.90;;;;;;5059227;28;20196;-50
2021/03/22 09:25:53;;;;;;;9.33;2.67;;;8.20;99.90;;;;;;5043678;28;20205;-51
2021/03/22 09:28:26;;;;;;;5.37;2.30;;;8.00;99.90;;;;;;5058019;28;20252;-50
2021/03/22 09:31:11;;;;;;;6.27;2.67;;;8.00;99.90;;;;;;5060554;28;20231;-49
2021/03/22 09:33:47;;;;;;;8.50;2.13;;;8.10;99.90;;;;;;5056905;28;20226;-49
2021/03/22 09:36:27;;;;;;;5.60;2.00;;;8.10;99.90;;;;;;5056641;28;20311;-50
2021/03/22 09:38:55;;;;;;;8.30;1.73;;;8.10;99.90;;;;;;5058374;28;20560;-50
2021/03/22 09:42:01;;;;;;;4.20;1.53;;;8.10;99.90;;;;;;5055489;28;20607;-49
2021/03/22 09:44:36;;;;;;;7.37;1.97;;;8.10;99.90;;;;;;5045359;28;20200;-48
2021/03/22 09:47:14;;;;;;;3.17;1.93;;;8.20;99.90;;;;;;5057885;28;20202;-50
2021/03/22 09:50:00;;;;;;;4.60;1.60;;;8.20;99.90;;;;;;5058386;28;20233;-49
2021/03/22 09:52:40;;;;;;;9.17;2.23;;;8.10;99.90;;;;;;5057049;28;20664;-50
2021/03/22 09:55:26;;;;;;;7.87;1.80;;;8.20;99.90;;;;;;5059673;28;20201;-50
2021/03/22 09:57:54;;;;;;;7.53;1.90;;;8.20;99.90;;;;;;5058238;28;20301;-50
2021/03/22 10:00:35;;;;;;;5.90;1.77;;;8.10;99.90;;;;;;5058670;28;20681;-48
2021/03/22 10:03:27;;;;;;;4.60;2.20;;;8.40;99.90;;;;;;5055840;28;20256;-48
2021/03/22 10:05:55;;;;;;;7.10;2.80;;;8.70;99.90;;;;;;5057634;28;20657;-49
2021/03/22 10:08:28;;;;;;;4.33;1.57;;;9.10;99.90;;;;;;5055516;28;20333;-48
2021/03/22 10:10:58;;;;;;;3.23;1.30;;;9.30;99.90;;;;;;5053786;28;20206;-50
2021/03/22 10:13:35;;;;;;;2.87;1.50;;;9.30;99.90;;;;;;5054484;28;20651;-50
2021/03/22 10:16:10;;;;;;;5.13;1.70;;;9.40;99.90;;;;;;5056960;28;20207;-49
2021/03/22 10:18:53;;;;;;;5.13;2.00;;;9.50;99.90;;;;;;5057315;28;20271;-48
2021/03/22 10:21:43;;;;;;;5.07;1.60;;;9.50;99.90;;;;;;5057948;28;20650;-49
2021/03/22 10:24:34;;;;;;;3.60;1.63;;;9.30;99.90;;;;;;5057027;28;20199;-49
2021/03/22 10:27:02;;;;;;;3.87;1.70;;;9.60;99.90;;;;;;5057860;28;20252;-49
2021/03/22 10:29:32;;;;;;;4.50;1.37;;;9.90;99.90;;;;;;5058427;28;20197;-51
2021/03/22 10:32:01;;;;;;;2.80;1.40;;;10.00;99.90;;;;;;5056921;28;20747;-48
2021/03/22 10:34:49;;;;;;;2.03;1.30;;;10.00;99.90;;;;;;5059312;28;20202;-49
2021/03/22 10:37:29;;;;;;;3.57;1.27;;;10.20;99.90;;;;;;5055622;28;20317;-48
2021/03/22 10:40:19;;;;;;;3.03;1.10;;;10.00;99.90;;;;;;5056808;28;20346;-50
2021/03/22 10:42:45;;;;;;;5.00;1.17;;;9.60;99.90;;;;;;5049429;28;20274;-49
2021/03/22 10:45:28;;;;;;;1.43;1.00;;;9.40;99.90;;;;;;5042592;28;20214;-51
2021/03/22 10:47:57;;;;;;;1.43;0.93;;;9.50;99.90;;;;;;5057223;28;20198;-49
2021/03/22 10:50:35;;;;;;;1.70;1.00;;;9.40;99.90;;;;;;5043856;28;20229;-49
2021/03/22 10:53:13;;;;;;;1.33;0.90;;;9.30;99.90;;;;;;5037971;28;20249;-50
2021/03/22 10:55:42;;;;;;;3.63;0.90;;;9.30;99.90;;;;;;5056733;28;20445;-50
2021/03/22 10:58:18;;;;;;;3.73;1.10;;;9.30;99.90;;;;;;5054973;28;20273;-51
2021/03/22 11:00:46;;;;;;;1.97;0.80;;;9.50;99.90;;;;;;5055575;28;20672;-51
2021/03/22 11:03:25;;;;;;;1.17;0.80;;;9.60;99.90;;;;;;5045260;28;20847;-51
2021/03/22 11:05:55;;;;;;;3.67;1.07;;;9.30;99.90;;;;;;5055479;28;20210;-49
2021/03/22 11:08:32;;;;;;;2.63;1.60;;;9.30;99.90;;;;;;5055996;28;20238;-49
2021/03/22 11:11:07;;;;;;;1.60;1.10;;;9.30;99.90;;;;;;5054436;28;20205;-50
2021/03/22 11:13:37;;;;;;;3.17;1.00;;;9.40;99.90;;;;;;5048415;28;20229;-50
2021/03/22 11:16:20;;;;;;;1.90;0.83;;;9.40;99.90;;;;;;5054376;28;20209;-50
2021/03/22 11:18:48;;;;;;;4.87;1.33;;;9.80;99.90;;;;;;5055953;28;21217;-50
2021/03/22 11:21:19;;;;;;;1.53;0.70;;;9.80;99.90;;;;;;5055553;28;20334;-50
2021/03/22 11:23:49;;;;;;;1.70;0.93;;;10.00;99.90;;;;;;5057875;28;20590;-51
2021/03/22 11:26:30;;;;;;;1.73;0.80;;;9.80;99.90;;;;;;5057130;28;20211;-51
2021/03/22 11:29:15;;;;;;;2.70;0.97;;;9.50;99.90;;;;;;5056696;28;20207;-51
2021/03/22 11:31:45;;;;;;;2.43;0.90;;;9.60;99.90;;;;;;5056919;28;20669;-51
2021/03/22 11:34:14;;;;;;;2.23;1.10;;;9.40;99.90;;;;;;5055296;28;20362;-49
2021/03/22 11:36:43;;;;;;;2.57;1.27;;;9.40;99.90;;;;;;5058188;28;20286;-50
2021/03/22 11:39:23;;;;;;;5.63;1.37;;;9.50;99.90;;;;;;5056203;28;20688;-51
2021/03/22 11:41:52;;;;;;;4.37;1.43;;;9.50;99.90;;;;;;5057555;28;20217;-49
2021/03/22 11:44:33;;;;;;;5.20;1.60;;;9.30;99.90;;;;;;5054364;28;20269;-49
2021/03/22 11:47:36;;;;;;;1.67;1.27;;;9.50;99.90;;;;;;5056804;28;20727;-49
2021/03/22 11:50:25;;;;;;;1.97;1.20;;;9.50;99.90;;;;;;5056141;28;20220;-49
2021/03/22 11:53:04;;;;;;;2.83;1.30;;;9.40;99.90;;;;;;5054935;28;20257;-50
2021/03/22 11:55:46;;;;;;;3.53;1.80;;;9.30;99.90;;;;;;5056711;28;20314;-49
2021/03/22 11:58:36;;;;;;;2.70;1.47;;;9.10;99.90;;;;;;5045398;28;20207;-49
2021/03/22 12:01:15;;;;;;;4.77;1.77;;;9.20;99.90;;;;;;5057045;28;20204;-50
2021/03/22 12:03:45;;;;;;;2.83;2.33;;;9.00;99.90;;;;;;5058462;28;20218;-49
2021/03/22 12:06:20;;;;;;;1.30;1.20;;;9.20;99.90;;;;;;5057191;28;20243;-50
2021/03/22 12:08:52;;;;;;;2.37;1.80;;;9.40;99.90;;;;;;5055331;28;20345;-50
2021/03/22 12:11:26;;;;;;;1.53;0.93;;;9.60;99.90;;;;;;5056355;28;20275;-51
2021/03/22 12:13:55;;;;;;;1.80;1.20;;;9.50;99.90;;;;;;5058495;28;20259;-51
2021/03/22 12:16:33;;;;;;;3.00;1.53;;;9.40;99.90;;;;;;5041079;28;20195;-51
2021/03/22 12:19:09;;;;;;;3.63;1.30;;;9.20;99.90;;;;;;5038733;28;20297;-50
2021/03/22 12:21:36;;;;;;;3.17;1.60;;;9.30;99.90;;;;;;5037280;28;20231;-50
2021/03/22 12:24:04;;;;;;;3.20;1.53;;;9.30;99.90;;;;;;5055201;28;20308;-52
2021/03/22 12:26:32;;;;;;;4.17;1.50;;;9.60;99.90;;;;;;5054435;28;20255;-51
2021/03/22 12:29:00;;;;;;;2.27;1.67;;;9.50;99.90;;;;;;5037935;28;20221;-50
2021/03/22 12:31:39;;;;;;;3.07;1.63;;;9.70;99.90;;;;;;5056464;28;20247;-52
2021/03/22 12:34:11;;;;;;;2.07;1.10;;;9.50;99.90;;;;;;5057743;28;20208;-52
2021/03/22 12:36:38;;;;;;;4.20;2.47;;;9.60;99.90;;;;;;5060660;28;20238;-49
2021/03/22 12:39:23;;;;;;;5.40;2.27;;;9.50;99.90;;;;;;5054914;28;20725;-48
2021/03/22 12:42:05;;;;;;;2.40;1.97;;;9.40;99.90;;;;;;5044114;28;20780;-48
2021/03/22 12:44:34;;;;;;;2.37;1.97;;;9.30;99.90;;;;;;5050588;28;20206;-49
2021/03/22 12:47:00;;;;;;;4.30;2.27;;;9.10;99.90;;;;;;5059839;28;20197;-51
2021/03/22 12:49:27;;;;;;;4.37;2.50;;;9.20;99.90;;;;;;5057876;28;20231;-49
2021/03/22 12:51:53;;;;;;;3.97;2.60;;;9.40;99.90;;;;;;5054921;28;20210;-49
2021/03/22 12:54:20;;;;;;;4.40;1.90;;;9.30;99.90;;;;;;5040963;28;20204;-50
2021/03/22 12:56:47;;;;;;;5.27;2.07;;;9.50;99.90;;;;;;5055863;28;20635;-52
2021/03/22 12:59:39;;;;;;;3.27;2.33;;;9.60;99.90;;;;;;5058228;28;20307;-50
2021/03/22 13:02:16;;;;;;;4.33;2.00;;;9.50;99.90;;;;;;5054401;28;20296;-52
2021/03/22 13:04:43;;;;;;;10.07;2.43;;;9.60;99.90;;;;;;5057477;28;20207;-51
2021/03/22 13:07:10;;;;;;;2.33;2.13;;;9.80;99.90;;;;;;5057303;28;20208;-52
2021/03/22 13:09:41;;;;;;;1.67;1.57;;;9.70;99.90;;;;;;5052096;28;20858;-51
2021/03/22 13:12:24;;;;;;;2.77;1.37;;;9.70;99.90;;;;;;5058557;28;20361;-52
2021/03/22 13:14:53;;;;;;;1.50;1.27;;;9.50;99.90;;;;;;5059534;28;20645;-50
2021/03/22 13:17:32;;;;;;;3.80;1.40;;;9.50;99.90;;;;;;5058762;28;20225;-50
2021/03/22 13:20:00;;;;;;;1.30;1.20;;;9.60;99.90;;;;;;5060424;28;20197;-51
2021/03/22 13:22:29;;;;;;;1.73;1.33;;;10.00;99.90;;;;;;5059173;28;20209;-51
2021/03/22 13:25:02;;;;;;;4.77;1.53;;;10.00;99.90;;;;;;5058868;28;20316;-49
2021/03/22 13:27:29;;;;;;;2.73;1.77;;;10.00;99.90;;;;;;5058637;28;20819;-52
2021/03/22 13:29:55;;;;;;;4.10;2.03;;;9.90;99.90;;;;;;5059013;28;20569;-49